Time;durP1;ratioP1;P1;durP2;ratioP2;P2;SDS_P1;SDS_P2;PMS_P1;PMS_P2;Temp;Humidity;BMP_temperature;BMP_pressure;BME280_temperature;BME280_humidity;BME280_pressure;Samples;Min_cycle;Max_cycle;Signal;HPM_P1;HPM_P2
2023/02/10 00:01:30;;;;;;;3.05;1.15;;;-2.30;94.30;;;;;;5028774;28;20300;-67
2023/02/10 00:03:57;;;;;;;3.20;2.67;;;-2.40;94.30;;;;;;5028346;28;20218;-67
2023/02/10 00:06:26;;;;;;;11.40;5.03;;;-2.40;94.30;;;;;;5028347;28;20235;-68
2023/02/10 00:08:55;;;;;;;1.95;1.60;;;-2.40;94.20;;;;;;5028823;28;20686;-67
2023/02/10 00:11:56;;;;;;;3.58;3.35;;;-2.40;94.20;;;;;;5036688;28;20298;-67
2023/02/10 00:14:10;;;;;;;3.67;3.30;;;-2.40;94.20;;;;;;5036787;28;20210;-67
2023/02/10 00:16:40;;;;;;;5.00;4.68;;;-2.40;94.50;;;;;;5028448;28;20525;-67
2023/02/10 00:19:07;;;;;;;4.18;2.72;;;-2.40;94.30;;;;;;5027796;28;20208;-67
2023/02/10 00:21:35;;;;;;;3.25;3.10;;;-2.40;94.10;;;;;;5028064;28;20223;-66
2023/02/10 00:24:03;;;;;;;3.50;2.30;;;-2.40;94.00;;;;;;5029202;28;20208;-67
2023/02/10 00:26:30;;;;;;;2.38;1.75;;;-2.40;94.30;;;;;;5028981;28;20231;-67
2023/02/10 00:28:56;;;;;;;7.50;4.13;;;-2.40;94.20;;;;;;5031112;28;20222;-67
2023/02/10 00:31:23;;;;;;;4.05;2.85;;;-2.40;94.20;;;;;;5047622;28;20227;-68
2023/02/10 00:33:50;;;;;;;5.25;2.92;;;-2.40;94.30;;;;;;5048304;28;20195;-67
2023/02/10 00:36:17;;;;;;;2.53;2.13;;;-2.40;94.20;;;;;;5048687;28;20239;-66
2023/02/10 00:38:45;;;;;;;4.72;4.43;;;-2.40;94.20;;;;;;5047469;28;20225;-67
2023/02/10 00:41:14;;;;;;;1.60;1.50;;;-2.50;94.20;;;;;;5062363;28;20228;-67
2023/02/10 00:43:42;;;;;;;2.50;2.30;;;-2.30;94.40;;;;;;5046770;28;20203;-67
2023/02/10 00:46:09;;;;;;;2.55;2.42;;;-2.30;94.20;;;;;;5028666;28;21057;-67
2023/02/10 00:48:36;;;;;;;4.35;3.95;;;-2.50;94.10;;;;;;5032042;28;20202;-67
2023/02/10 00:51:03;;;;;;;3.38;3.15;;;-2.50;94.50;;;;;;5028406;28;20222;-67
2023/02/10 00:53:30;;;;;;;5.45;3.20;;;-2.60;94.60;;;;;;5028523;28;20201;-67
2023/02/10 00:55:58;;;;;;;2.63;2.25;;;-2.50;94.80;;;;;;5028571;28;20235;-66
2023/02/10 00:58:25;;;;;;;4.22;2.58;;;-2.60;94.70;;;;;;5039231;28;20203;-68
2023/02/10 01:00:53;;;;;;;3.65;3.45;;;-2.60;94.60;;;;;;5046637;28;20228;-67
2023/02/10 01:03:20;;;;;;;1.80;1.70;;;-2.60;94.40;;;;;;5029405;28;20196;-66
2023/02/10 01:05:47;;;;;;;4.57;2.45;;;-2.60;94.40;;;;;;5028026;28;20238;-67
2023/02/10 01:08:14;;;;;;;4.30;3.72;;;-2.70;94.30;;;;;;5037047;28;20565;-67
2023/02/10 01:10:42;;;;;;;2.15;1.98;;;-2.70;94.40;;;;;;5031638;28;20227;-66
2023/02/10 01:13:11;;;;;;;6.95;3.97;;;-2.70;94.40;;;;;;5043959;28;20202;-67
2023/02/10 01:15:42;;;;;;;3.70;3.50;;;-2.70;94.20;;;;;;5045883;28;20740;-67
2023/02/10 01:18:09;;;;;;;3.38;3.13;;;-2.70;94.30;;;;;;5046011;28;20746;-67
2023/02/10 01:20:40;;;;;;;1.95;1.45;;;-2.70;94.30;;;;;;5047210;28;20221;-67
2023/02/10 01:23:07;;;;;;;6.25;4.38;;;-2.70;94.30;;;;;;5047366;28;20233;-67
2023/02/10 01:25:34;;;;;;;4.80;2.95;;;-2.70;94.40;;;;;;5047358;28;20237;-67
2023/02/10 01:28:00;;;;;;;2.20;2.13;;;-2.70;94.40;;;;;;5037294;28;20604;-67
2023/02/10 01:30:29;;;;;;;1.45;1.35;;;-2.70;94.80;;;;;;5047603;28;20294;-68
2023/02/10 01:32:56;;;;;;;2.30;2.15;;;-2.60;94.90;;;;;;5047735;28;20572;-67
2023/02/10 01:35:23;;;;;;;11.80;3.00;;;-2.60;94.80;;;;;;5047544;28;20227;-66
2023/02/10 01:37:50;;;;;;;3.35;2.70;;;-2.50;94.90;;;;;;5053379;28;20213;-67
2023/02/10 01:40:17;;;;;;;2.38;2.17;;;-2.40;95.00;;;;;;5058943;28;20220;-67
2023/02/10 01:42:45;;;;;;;6.75;3.08;;;-2.40;95.00;;;;;;5052476;28;20201;-67
2023/02/10 01:45:21;;;;;;;0.77;0.77;;;-2.40;94.80;;;;;;5047567;28;20580;-67
2023/02/10 01:47:52;;;;;;;10.23;2.75;;;-2.40;94.90;;;;;;5039915;28;20223;-67
2023/02/10 01:50:22;;;;;;;6.97;2.95;;;-2.40;95.00;;;;;;5047127;28;20199;-67
2023/02/10 01:52:50;;;;;;;1.45;1.35;;;-2.30;95.00;;;;;;5046171;28;20209;-66
2023/02/10 01:55:20;;;;;;;5.90;4.10;;;-2.30;95.10;;;;;;5046974;28;20216;-67
2023/02/10 01:57:53;;;;;;;1.55;1.33;;;-2.40;94.90;;;;;;5040379;28;20210;-67
2023/02/10 02:00:21;;;;;;;3.17;2.97;;;-2.40;95.00;;;;;;5047216;28;20239;-67
2023/02/10 02:02:49;;;;;;;1.38;1.30;;;-2.40;95.00;;;;;;5037254;28;20203;-67
2023/02/10 02:05:33;;;;;;;2.70;2.50;;;-2.40;95.10;;;;;;5025394;28;20711;-65
2023/02/10 02:08:03;;;;;;;2.55;2.33;;;-2.40;95.00;;;;;;5028927;28;20511;-67
2023/02/10 02:10:38;;;;;;;1.90;1.83;;;-2.40;94.80;;;;;;5047017;28;20220;-67
2023/02/10 02:13:13;;;;;;;2.08;1.98;;;-2.40;94.80;;;;;;5035707;28;20202;-67
2023/02/10 02:15:48;;;;;;;3.40;3.22;;;-2.50;94.60;;;;;;5026662;28;20222;-67
2023/02/10 02:18:23;;;;;;;4.57;4.28;;;-2.50;94.70;;;;;;5032621;28;20210;-67
2023/02/10 02:21:18;;;;;;;1.58;1.38;;;-2.50;94.70;;;;;;5030270;28;20971;-67
2023/02/10 02:24:07;;;;;;;3.58;2.55;;;-2.60;94.90;;;;;;5031937;28;20233;-67
2023/02/10 02:26:59;;;;;;;1.75;1.65;;;-2.70;94.90;;;;;;5035498;28;20636;-67
2023/02/10 02:32:53;;;;;;;4.70;4.40;;;-2.80;94.90;;;;;;5029717;28;20544;-65
2023/02/10 02:35:25;;;;;;;2.17;2.08;;;-2.90;95.10;;;;;;5027192;28;20209;-67
2023/02/10 02:37:54;;;;;;;3.15;3.05;;;-2.80;95.20;;;;;;5038925;28;20264;-67
2023/02/10 02:40:22;;;;;;;1.63;1.50;;;-2.80;94.70;;;;;;5059533;28;20251;-67
2023/02/10 02:42:49;;;;;;;0.90;0.90;;;-2.80;94.70;;;;;;5051053;28;20193;-66
2023/02/10 02:45:21;;;;;;;1.73;1.63;;;-2.90;94.70;;;;;;5046735;28;20265;-67
2023/02/10 02:48:13;;;;;;;3.80;2.40;;;-3.00;94.70;;;;;;5044935;28;20209;-67
2023/02/10 02:50:50;;;;;;;7.38;4.53;;;-2.90;94.70;;;;;;5046881;28;20633;-66
2023/02/10 02:53:29;;;;;;;3.50;2.17;;;-2.90;94.50;;;;;;5047023;28;20268;-67
2023/02/10 02:56:08;;;;;;;2.58;2.35;;;-2.90;94.50;;;;;;5050694;28;20221;-67
2023/02/10 02:58:45;;;;;;;4.43;1.58;;;-3.00;94.40;;;;;;5030633;28;20204;-67
2023/02/10 03:01:16;;;;;;;2.83;2.63;;;-3.00;94.50;;;;;;5030624;28;20226;-67
2023/02/10 03:03:45;;;;;;;3.55;2.75;;;-3.10;94.50;;;;;;5030046;28;20203;-67
2023/02/10 03:06:12;;;;;;;1.75;0.93;;;-3.10;94.40;;;;;;5030403;28;20323;-67
2023/02/10 03:08:41;;;;;;;3.30;2.55;;;-3.10;94.40;;;;;;5042333;28;20193;-67
2023/02/10 03:11:08;;;;;;;3.80;3.50;;;-3.10;94.30;;;;;;5044048;28;20242;-67
2023/02/10 03:13:35;;;;;;;5.43;4.00;;;-3.10;94.20;;;;;;5049378;28;20208;-67
2023/02/10 03:16:03;;;;;;;2.75;2.55;;;-3.10;94.20;;;;;;5049986;28;20224;-67
2023/02/10 03:18:30;;;;;;;3.65;3.35;;;-3.00;97.70;;;;;;5039688;28;20216;-67
2023/02/10 03:20:58;;;;;;;2.00;1.38;;;-3.20;94.30;;;;;;5049446;28;20220;-67
2023/02/10 03:23:27;;;;;;;3.75;2.15;;;-3.20;94.40;;;;;;5049483;28;20308;-67
2023/02/10 03:25:54;;;;;;;6.50;2.03;;;-3.20;94.30;;;;;;5048471;28;20238;-67
2023/02/10 03:28:21;;;;;;;4.43;4.10;;;-3.20;94.20;;;;;;5047438;28;20198;-67
2023/02/10 03:30:50;;;;;;;2.70;2.50;;;-3.20;94.20;;;;;;5048930;28;20238;-67
2023/02/10 03:33:18;;;;;;;2.25;2.15;;;-3.20;94.70;;;;;;5041905;28;20201;-67
2023/02/10 03:35:46;;;;;;;1.45;1.45;;;-3.20;94.30;;;;;;5029104;28;20227;-67
2023/02/10 03:38:15;;;;;;;4.43;4.13;;;-3.30;94.60;;;;;;5054170;28;20660;-65
2023/02/10 03:40:43;;;;;;;6.88;3.08;;;-3.30;94.30;;;;;;5038626;28;21613;-67
2023/02/10 03:43:10;;;;;;;2.05;1.95;;;-3.30;94.30;;;;;;5043109;28;20197;-68
2023/02/10 03:45:39;;;;;;;5.40;3.00;;;-3.30;94.20;;;;;;5028833;28;20958;-67
2023/02/10 03:48:08;;;;;;;2.10;2.03;;;-3.30;94.10;;;;;;5028999;28;20201;-67
2023/02/10 03:50:35;;;;;;;2.53;2.38;;;-3.30;94.10;;;;;;5037401;28;20270;-67
2023/02/10 03:53:03;;;;;;;1.33;1.33;;;-3.40;94.10;;;;;;5035602;28;20207;-66
2023/02/10 03:55:32;;;;;;;3.85;2.70;;;-3.40;94.30;;;;;;5033148;28;20217;-67
2023/02/10 03:58:01;;;;;;;2.80;2.60;;;-3.50;94.30;;;;;;5047657;28;20258;-68
2023/02/10 04:00:30;;;;;;;2.00;1.90;;;-3.50;94.40;;;;;;5048498;28;20803;-66
2023/02/10 04:02:58;;;;;;;3.33;1.83;;;-3.40;94.40;;;;;;5048502;28;20205;-67
2023/02/10 04:05:25;;;;;;;3.40;3.10;;;-3.40;94.40;;;;;;5045410;28;20236;-69
2023/02/10 04:07:52;;;;;;;2.53;2.33;;;-3.40;94.50;;;;;;5040379;28;20200;-67
2023/02/10 04:10:20;;;;;;;1.83;1.73;;;-3.40;94.40;;;;;;5047667;28;20603;-66
2023/02/10 04:12:49;;;;;;;2.92;2.65;;;-3.40;94.40;;;;;;5036804;28;20280;-67
2023/02/10 04:15:16;;;;;;;0.70;0.70;;;-3.30;94.40;;;;;;5031058;28;20225;-67
2023/02/10 04:17:42;;;;;;;4.32;2.58;;;-3.30;94.30;;;;;;5043431;28;20277;-67
2023/02/10 04:20:10;;;;;;;3.67;2.90;;;-3.40;94.30;;;;;;5027890;28;20221;-68
2023/02/10 04:22:37;;;;;;;3.08;2.83;;;-3.30;94.20;;;;;;5036560;28;20208;-68
2023/02/10 04:25:04;;;;;;;1.90;1.80;;;-3.40;94.10;;;;;;5047730;28;20212;-67
2023/02/10 04:27:30;;;;;;;2.53;2.45;;;-3.40;94.10;;;;;;5046088;28;20228;-67
2023/02/10 04:29:59;;;;;;;4.22;2.67;;;-3.40;94.40;;;;;;5028064;28;20308;-67
2023/02/10 04:32:25;;;;;;;4.40;4.03;;;-3.50;94.30;;;;;;5027724;28;20217;-67
2023/02/10 04:34:52;;;;;;;1.00;1.00;;;-3.50;94.30;;;;;;5028569;28;20225;-67
2023/02/10 04:37:19;;;;;;;2.65;2.45;;;-3.40;94.50;;;;;;5035428;28;20717;-68
2023/02/10 04:39:46;;;;;;;12.25;4.47;;;;;;;;;;5055106;28;20204;-67
2023/02/10 04:42:13;;;;;;;4.68;3.42;;;-3.50;94.30;;;;;;5056212;28;20656;-67
2023/02/10 04:44:40;;;;;;;2.75;2.65;;;-3.50;94.40;;;;;;5047337;28;20192;-66
2023/02/10 04:47:08;;;;;;;1.17;1.17;;;-3.60;94.40;;;;;;5047125;28;20775;-67
2023/02/10 04:49:35;;;;;;;1.65;1.55;;;-3.60;94.50;;;;;;5043510;28;20572;-68
2023/02/10 04:52:01;;;;;;;3.50;2.65;;;-3.70;94.50;;;;;;5046899;28;20302;-67
2023/02/10 04:54:28;;;;;;;2.28;2.17;;;-3.60;94.50;;;;;;5038553;28;20202;-67
2023/02/10 04:56:55;;;;;;;4.03;3.28;;;-3.60;94.30;;;;;;5027698;28;20230;-66
2023/02/10 04:59:22;;;;;;;4.07;3.83;;;-3.60;94.40;;;;;;5043268;28;20234;-67
2023/02/10 05:01:48;;;;;;;5.72;3.45;;;-3.70;94.50;;;;;;5029653;28;20733;-67
2023/02/10 05:04:17;;;;;;;2.28;2.17;;;-3.70;94.50;;;;;;5027604;28;20700;-67
2023/02/10 05:06:43;;;;;;;2.58;2.38;;;-3.70;94.50;;;;;;5027330;28;20622;-67
2023/02/10 05:09:10;;;;;;;1.33;1.33;;;-3.70;94.70;;;;;;5029255;28;20548;-68
2023/02/10 05:11:37;;;;;;;1.38;1.38;;;-3.70;94.70;;;;;;5036028;28;20315;-67
2023/02/10 05:14:04;;;;;;;5.25;2.75;;;-3.70;94.70;;;;;;5047277;28;20929;-68
2023/02/10 05:16:31;;;;;;;1.92;1.83;;;-3.70;94.90;;;;;;5046303;28;20239;-67
2023/02/10 05:18:57;;;;;;;3.70;2.67;;;-3.80;95.80;;;;;;5029875;28;20196;-67
2023/02/10 05:21:25;;;;;;;6.85;2.75;;;-3.70;94.90;;;;;;5027213;28;20232;-68
2023/02/10 05:23:52;;;;;;;13.57;2.42;;;-3.70;95.10;;;;;;5027395;28;20208;-67
2023/02/10 05:26:19;;;;;;;3.65;2.72;;;-3.70;94.90;;;;;;5027361;28;20232;-67
2023/02/10 05:28:46;;;;;;;10.00;4.10;;;-3.60;94.70;;;;;;5041421;28;20205;-67
2023/02/10 05:31:12;;;;;;;7.05;3.80;;;-3.70;95.00;;;;;;5046749;28;20314;-66
2023/02/10 05:33:39;;;;;;;9.02;6.45;;;-3.70;94.80;;;;;;5046474;28;20515;-67
2023/02/10 05:36:07;;;;;;;2.95;2.80;;;-3.70;95.30;;;;;;5046781;28;20655;-67
2023/02/10 05:38:35;;;;;;;2.80;2.47;;;-3.70;95.20;;;;;;5047809;28;20208;-67
2023/02/10 05:41:02;;;;;;;2.35;2.20;;;-3.70;95.20;;;;;;5065075;28;20563;-67
2023/02/10 05:43:29;;;;;;;1.25;1.25;;;-3.80;95.30;;;;;;5066949;28;20201;-67
2023/02/10 05:45:56;;;;;;;2.50;2.40;;;-3.80;95.70;;;;;;5066943;28;20235;-67
2023/02/10 05:48:22;;;;;;;2.92;2.75;;;-3.80;98.60;;;;;;5054807;28;20211;-67
2023/02/10 05:50:51;;;;;;;2.33;2.22;;;-3.70;95.80;;;;;;5047021;28;20228;-67
2023/02/10 05:53:18;;;;;;;2.70;2.60;;;-3.80;95.60;;;;;;5046810;28;20682;-67
2023/02/10 05:55:47;;;;;;;3.08;2.95;;;-3.80;95.50;;;;;;5046826;28;20231;-67
2023/02/10 05:58:14;;;;;;;3.80;3.50;;;-1.40;96.60;;;;;;5037334;28;20470;-67
2023/02/10 06:00:41;;;;;;;4.70;3.22;;;-3.80;95.30;;;;;;5026137;28;20234;-67
2023/02/10 06:03:08;;;;;;;1.77;1.67;;;-3.90;95.10;;;;;;5027083;28;20299;-67
2023/02/10 06:05:34;;;;;;;2.15;1.65;;;-3.90;95.20;;;;;;5026654;28;20571;-67
2023/02/10 06:08:01;;;;;;;2.72;2.53;;;-3.90;95.20;;;;;;5032041;28;21004;-67
2023/02/10 06:10:28;;;;;;;3.67;3.38;;;-3.80;95.20;;;;;;5046163;28;20859;-68
2023/02/10 06:12:56;;;;;;;5.80;5.30;;;-3.80;95.20;;;;;;5045621;28;20663;-67
2023/02/10 06:15:23;;;;;;;1.17;1.10;;;-3.80;95.20;;;;;;5045913;28;20806;-66
2023/02/10 06:17:50;;;;;;;2.40;2.20;;;-3.70;95.20;;;;;;5046898;28;20338;-67
2023/02/10 06:20:17;;;;;;;3.25;2.90;;;-3.70;95.10;;;;;;5046120;28;20808;-67
2023/02/10 06:22:43;;;;;;;1.25;1.25;;;-3.70;95.00;;;;;;5042388;28;20196;-66
2023/02/10 06:25:10;;;;;;;2.20;2.10;;;-3.80;95.00;;;;;;5046492;28;20200;-66
2023/02/10 06:27:37;;;;;;;3.25;2.95;;;-3.90;95.10;;;;;;5046040;28;20237;-68
2023/02/10 06:30:06;;;;;;;2.47;2.38;;;-3.80;98.90;;;;;;5050005;28;20739;-67
2023/02/10 06:32:33;;;;;;;3.10;2.90;;;-3.90;95.30;;;;;;5048829;28;20200;-67
2023/02/10 06:35:00;;;;;;;3.97;3.47;;;-3.90;95.40;;;;;;5032139;28;20192;-67
2023/02/10 06:37:26;;;;;;;1.90;1.80;;;-3.90;95.30;;;;;;5050000;28;20228;-67
2023/02/10 06:39:53;;;;;;;4.00;3.75;;;-3.80;95.50;;;;;;5061388;28;20192;-67
2023/02/10 06:42:20;;;;;;;3.83;3.47;;;-3.90;95.40;;;;;;5038476;28;20303;-68
2023/02/10 06:44:47;;;;;;;2.90;2.70;;;-3.90;95.30;;;;;;5049377;28;20200;-67
2023/02/10 06:47:15;;;;;;;2.10;2.00;;;-3.90;95.60;;;;;;5050678;28;20240;-67
2023/02/10 06:49:41;;;;;;;2.38;2.25;;;-3.90;95.60;;;;;;5046095;28;20217;-66
2023/02/10 06:52:08;;;;;;;0.77;0.77;;;-3.90;95.50;;;;;;5047352;28;20223;-67
2023/02/10 06:54:35;;;;;;;2.55;2.45;;;-3.90;95.70;;;;;;5047812;28;20928;-67
2023/02/10 06:57:02;;;;;;;1.40;1.27;;;-3.90;95.70;;;;;;5049787;28;20246;-67
2023/02/10 06:59:28;;;;;;;2.70;2.50;;;-3.90;95.60;;;;;;5032792;28;20204;-67
2023/02/10 07:02:00;;;;;;;3.40;3.20;;;-3.90;95.50;;;;;;5030757;28;20221;-67
2023/02/10 07:04:28;;;;;;;5.68;5.18;;;-3.90;95.40;;;;;;5044480;28;20200;-68
2023/02/10 07:06:55;;;;;;;3.10;2.83;;;-3.90;95.60;;;;;;5040084;28;20227;-67
2023/02/10 07:09:22;;;;;;;9.30;3.30;;;-3.90;96.00;;;;;;5038631;28;20201;-66
2023/02/10 07:11:49;;;;;;;2.03;1.92;;;-3.90;96.10;;;;;;5030353;28;20224;-67
2023/02/10 07:14:16;;;;;;;1.55;1.45;;;-3.80;96.20;;;;;;5043061;28;20222;-68
2023/02/10 07:16:43;;;;;;;1.98;1.88;;;-3.80;95.80;;;;;;5049999;28;20230;-68
2023/02/10 07:19:10;;;;;;;3.28;3.08;;;-3.80;95.90;;;;;;5030886;28;20196;-68
2023/02/10 07:21:39;;;;;;;5.63;3.80;;;-3.70;95.80;;;;;;5035714;28;20235;-68
2023/02/10 07:24:06;;;;;;;2.70;2.50;;;-3.60;95.70;;;;;;5039612;28;20251;-67
2023/02/10 07:26:33;;;;;;;8.13;3.80;;;-3.60;95.60;;;;;;5035338;28;20220;-67
2023/02/10 07:29:00;;;;;;;2.22;2.03;;;-3.40;96.60;;;;;;5030552;28;20205;-67
2023/02/10 07:31:27;;;;;;;13.18;4.53;;;-3.50;95.80;;;;;;5029683;28;20220;-67
2023/02/10 07:33:54;;;;;;;6.10;5.70;;;-3.40;95.90;;;;;;5030024;28;20202;-67
2023/02/10 07:36:23;;;;;;;7.07;4.88;;;-3.40;95.90;;;;;;5029695;28;20226;-66
2023/02/10 07:38:51;;;;;;;4.65;4.20;;;-3.30;96.00;;;;;;5048682;28;20589;-67
2023/02/10 07:41:18;;;;;;;1.70;1.60;;;-3.30;96.10;;;;;;5041847;28;20306;-68
2023/02/10 07:43:45;;;;;;;3.90;3.75;;;-3.20;96.20;;;;;;5029809;28;20200;-67
2023/02/10 07:46:12;;;;;;;3.63;3.42;;;-3.10;96.20;;;;;;5029199;28;20594;-67
2023/02/10 07:48:39;;;;;;;1.90;1.85;;;-3.10;96.30;;;;;;5030305;28;20578;-67
2023/02/10 07:51:06;;;;;;;3.42;3.22;;;-3.00;96.40;;;;;;5028905;28;20664;-67
2023/02/10 07:53:32;;;;;;;3.75;3.45;;;-2.90;96.40;;;;;;5029385;28;20203;-67
2023/02/10 07:56:01;;;;;;;2.45;2.25;;;-2.80;96.50;;;;;;5038350;28;20225;-68
2023/02/10 07:58:28;;;;;;;2.97;1.63;;;-3.20;96.40;;;;;;5047759;28;20218;-67
2023/02/10 08:00:55;;;;;;;2.97;2.80;;;-1.70;96.90;;;;;;5041557;28;20320;-68
2023/02/10 08:03:21;;;;;;;2.63;2.53;;;-2.40;99.70;;;;;;5029270;28;20290;-68
2023/02/10 08:05:49;;;;;;;3.15;2.95;;;-2.30;99.10;;;;;;5028590;28;20233;-68
2023/02/10 08:08:16;;;;;;;3.80;3.55;;;-2.20;96.40;;;;;;5038860;28;20630;-68
2023/02/10 08:10:43;;;;;;;4.53;3.55;;;-2.10;96.60;;;;;;5048974;28;20228;-67
2023/02/10 08:13:11;;;;;;;1.38;1.38;;;-2.00;96.30;;;;;;5043057;28;20198;-67
2023/02/10 08:15:38;;;;;;;3.92;3.58;;;-1.90;96.20;;;;;;5028606;28;20231;-67
2023/02/10 08:18:05;;;;;;;4.38;3.92;;;-1.90;96.10;;;;;;5035906;28;20563;-67
2023/02/10 08:20:32;;;;;;;3.25;1.67;;;-1.80;98.90;;;;;;5048226;28;20274;-68
2023/02/10 08:23:07;;;;;;;3.97;3.22;;;-1.70;96.10;;;;;;5042927;28;20196;-69
2023/02/10 08:25:35;;;;;;;2.90;2.70;;;-1.60;96.30;;;;;;5047141;28;20223;-68
2023/02/10 08:28:05;;;;;;;6.32;5.43;;;-1.50;96.20;;;;;;5048287;28;20232;-70
2023/02/10 08:30:33;;;;;;;2.28;2.17;;;-1.50;96.50;;;;;;5046635;28;20318;-68
2023/02/10 08:33:01;;;;;;;2.13;1.95;;;;;;;;;;5038319;28;20199;-68
2023/02/10 08:35:28;;;;;;;4.68;4.47;;;-1.30;95.70;;;;;;5044632;28;20313;-68
2023/02/10 08:37:54;;;;;;;3.70;2.33;;;-1.10;95.70;;;;;;5057462;28;20203;-66
2023/02/10 08:40:21;;;;;;;2.65;2.42;;;-1.00;95.50;;;;;;5055256;28;20208;-68
2023/02/10 08:42:48;;;;;;;3.70;1.40;;;-1.00;95.30;;;;;;5047159;28;20761;-68
2023/02/10 08:45:15;;;;;;;5.32;3.63;;;-0.90;95.20;;;;;;5047637;28;20284;-67
2023/02/10 08:47:43;;;;;;;3.90;3.70;;;-0.80;94.80;;;;;;5046422;28;20228;-67
2023/02/10 08:50:10;;;;;;;2.38;1.98;;;-0.70;94.70;;;;;;5026728;28;20738;-67
2023/02/10 08:52:36;;;;;;;3.00;2.80;;;-0.50;94.60;;;;;;5028467;28;20205;-67
2023/02/10 08:55:04;;;;;;;7.97;2.97;;;-0.40;94.30;;;;;;5028785;28;20288;-69
2023/02/10 08:57:31;;;;;;;8.05;5.15;;;-0.40;94.00;;;;;;5028617;28;20200;-67
2023/02/10 08:59:58;;;;;;;8.75;4.38;;;-0.30;93.70;;;;;;5025585;28;20199;-68
2023/02/10 09:02:25;;;;;;;4.13;3.83;;;-0.20;93.70;;;;;;5028050;28;20679;-69
2023/02/10 09:04:54;;;;;;;3.50;3.22;;;-0.20;93.50;;;;;;5028684;28;20197;-68
2023/02/10 09:07:21;;;;;;;5.05;3.53;;;0.90;96.30;;;;;;5028761;28;20227;-69
2023/02/10 09:09:48;;;;;;;8.18;4.18;;;0.20;93.50;;;;;;5046860;28;20205;-67
2023/02/10 09:12:15;;;;;;;6.50;3.65;;;0.10;92.90;;;;;;5044411;28;20230;-68
2023/02/10 09:14:41;;;;;;;8.32;6.47;;;0.20;92.90;;;;;;5040131;28;20188;-67
2023/02/10 09:17:12;;;;;;;7.25;4.78;;;0.40;92.80;;;;;;5045410;28;20243;-67
2023/02/10 09:19:39;;;;;;;3.53;3.30;;;0.40;92.80;;;;;;5046479;28;20206;-70
2023/02/10 09:22:07;;;;;;;8.20;5.00;;;0.40;92.70;;;;;;5042306;28;20302;-70
2023/02/10 09:24:34;;;;;;;4.85;4.53;;;0.50;92.50;;;;;;5045621;28;20287;-69
2023/02/10 09:27:01;;;;;;;10.77;3.67;;;0.60;92.30;;;;;;5038080;28;20231;-67
2023/02/10 09:29:28;;;;;;;7.50;2.28;;;0.60;92.30;;;;;;5046247;28;20204;-67
2023/02/10 09:31:57;;;;;;;4.72;4.43;;;0.70;92.50;;;;;;5047769;28;20277;-67
2023/02/10 09:34:23;;;;;;;5.20;2.88;;;0.90;92.70;;;;;;5047491;28;20204;-68
2023/02/10 09:36:51;;;;;;;3.45;3.25;;;0.90;92.40;;;;;;5046731;28;20241;-68
2023/02/10 09:39:19;;;;;;;4.93;4.53;;;1.20;92.40;;;;;;5052315;28;20567;-68
2023/02/10 09:41:56;;;;;;;5.80;4.93;;;1.10;92.20;;;;;;5036724;28;20220;-66
2023/02/10 09:44:26;;;;;;;3.88;2.47;;;1.10;92.00;;;;;;5027149;28;20255;-67
2023/02/10 09:47:17;;;;;;;3.55;3.25;;;1.10;92.00;;;;;;5028410;28;20300;-67
2023/02/10 09:50:00;;;;;;;9.00;3.35;;;1.20;92.00;;;;;;5025548;28;20204;-66
2023/02/10 09:52:40;;;;;;;5.88;4.28;;;1.30;92.00;;;;;;5036131;28;20224;-67
2023/02/10 09:55:15;;;;;;;3.92;2.33;;;1.30;91.70;;;;;;5047540;28;20211;-67
2023/02/10 09:57:45;;;;;;;2.63;2.38;;;1.50;91.80;;;;;;5034845;28;20216;-67
2023/02/10 10:00:25;;;;;;;6.00;4.10;;;1.50;91.70;;;;;;5023585;28;20193;-68
2023/02/10 10:02:54;;;;;;;7.97;4.28;;;1.60;91.60;;;;;;5041026;28;20207;-67
2023/02/10 10:05:30;;;;;;;6.55;2.95;;;1.70;91.30;;;;;;5046576;28;20208;-67
2023/02/10 10:07:58;;;;;;;6.53;3.17;;;1.80;91.00;;;;;;5047367;28;20610;-67
2023/02/10 10:10:32;;;;;;;3.60;2.63;;;1.80;91.20;;;;;;5046383;28;20226;-68
2023/02/10 10:12:59;;;;;;;4.32;3.97;;;1.90;91.30;;;;;;5031603;28;20211;-67
2023/02/10 10:15:38;;;;;;;2.78;2.28;;;1.90;91.10;;;;;;5031815;28;20679;-69
2023/02/10 10:18:14;;;;;;;7.07;3.22;;;2.00;90.90;;;;;;5024677;28;20207;-68
2023/02/10 10:20:51;;;;;;;14.02;3.75;;;2.10;90.70;;;;;;5026185;28;20236;-67
2023/02/10 10:23:34;;;;;;;7.60;5.63;;;2.30;92.40;;;;;;5042210;28;20685;-67
2023/02/10 10:26:20;;;;;;;4.45;3.38;;;2.30;89.40;;;;;;5030020;28;20220;-67
2023/02/10 10:29:03;;;;;;;5.43;3.20;;;2.30;89.80;;;;;;5034340;28;20226;-67
2023/02/10 10:31:34;;;;;;;2.58;2.38;;;2.30;89.90;;;;;;5046275;28;20227;-68
2023/02/10 10:34:10;;;;;;;6.78;3.15;;;2.30;89.40;;;;;;5036166;28;20211;-68
2023/02/10 10:36:39;;;;;;;4.95;4.47;;;2.30;88.90;;;;;;5036186;28;20211;-67
2023/02/10 10:39:15;;;;;;;13.13;5.10;;;2.40;89.30;;;;;;5041805;28;20843;-67
2023/02/10 10:41:45;;;;;;;4.90;3.03;;;2.40;89.70;;;;;;5066730;28;20230;-67
2023/02/10 10:44:15;;;;;;;3.13;2.22;;;2.70;92.30;;;;;;5066858;28;20615;-67
2023/02/10 10:46:48;;;;;;;6.30;2.78;;;2.60;88.70;;;;;;5066788;28;20231;-67
2023/02/10 10:49:16;;;;;;;7.30;5.35;;;2.60;88.40;;;;;;5049938;28;20228;-67
2023/02/10 10:51:43;;;;;;;5.30;4.57;;;2.70;86.60;;;;;;5046596;28;20224;-67
2023/02/10 10:54:16;;;;;;;3.25;1.83;;;2.70;86.40;;;;;;5046826;28;20204;-67
2023/02/10 10:56:47;;;;;;;6.00;2.50;;;2.90;86.60;;;;;;5042530;28;20725;-67
2023/02/10 10:59:17;;;;;;;5.35;4.32;;;2.90;86.00;;;;;;5034700;28;20647;-67
2023/02/10 11:01:46;;;;;;;4.57;4.18;;;2.80;85.20;;;;;;5045977;28;20227;-67
2023/02/10 11:04:15;;;;;;;2.80;2.60;;;3.00;84.30;;;;;;5046781;28;20211;-67
2023/02/10 11:06:44;;;;;;;3.80;3.60;;;3.00;83.60;;;;;;5046548;28;20235;-67
2023/02/10 11:09:22;;;;;;;1.90;1.70;;;3.20;88.90;;;;;;5027796;28;20699;-66
2023/02/10 11:11:51;;;;;;;5.72;3.47;;;3.00;82.80;;;;;;5026895;28;20904;-66
2023/02/10 11:14:22;;;;;;;7.15;4.80;;;3.10;83.30;;;;;;5026555;28;20208;-67
2023/02/10 11:16:51;;;;;;;4.38;4.07;;;3.20;83.50;;;;;;5032665;28;20240;-67
2023/02/10 11:19:23;;;;;;;6.47;2.53;;;3.20;83.40;;;;;;5044036;28;20200;-67
2023/02/10 11:21:51;;;;;;;3.17;2.63;;;3.20;83.10;;;;;;5050396;28;20327;-66
2023/02/10 11:24:22;;;;;;;4.03;3.38;;;3.20;82.30;;;;;;5036921;28;20202;-67
2023/02/10 11:26:59;;;;;;;4.32;3.42;;;3.30;82.10;;;;;;5029995;28;20608;-67
2023/02/10 11:29:26;;;;;;;6.57;4.22;;;3.30;81.70;;;;;;5029682;28;20232;-67
2023/02/10 11:31:54;;;;;;;4.15;3.70;;;3.30;87.80;;;;;;5036277;28;20228;-68
2023/02/10 11:34:25;;;;;;;8.00;3.40;;;3.20;82.10;;;;;;5038672;28;20658;-67
2023/02/10 11:36:54;;;;;;;5.65;4.63;;;3.30;83.30;;;;;;5044470;28;20223;-67
2023/02/10 11:39:23;;;;;;;4.15;3.80;;;3.40;83.90;;;;;;5063386;28;20568;-67
2023/02/10 11:41:51;;;;;;;2.80;2.60;;;3.30;83.60;;;;;;5045536;28;20232;-67
2023/02/10 11:44:29;;;;;;;5.82;3.20;;;3.70;89.10;;;;;;5038698;28;20203;-68
2023/02/10 11:46:58;;;;;;;9.23;3.85;;;3.40;83.60;;;;;;5048534;28;20238;-67
2023/02/10 11:49:27;;;;;;;5.22;3.35;;;3.40;82.60;;;;;;5043986;28;20216;-67
2023/02/10 11:51:56;;;;;;;7.13;4.00;;;3.40;82.80;;;;;;5040210;28;20226;-67
2023/02/10 11:54:25;;;;;;;4.20;3.80;;;3.50;82.90;;;;;;5036320;28;20985;-68
2023/02/10 11:59:59;;;;;;;2.50;2.35;;;3.60;81.50;;;;;;5027786;28;20197;-67
2023/02/10 12:02:37;;;;;;;3.85;2.47;;;3.70;79.80;;;;;;5028826;28;20239;-67
2023/02/10 12:05:20;;;;;;;3.25;2.95;;;3.70;79.40;;;;;;5028321;28;20223;-68
2023/02/10 12:08:04;;;;;;;4.78;3.60;;;3.70;80.40;;;;;;5031523;28;20607;-66
2023/02/10 12:10:39;;;;;;;4.70;4.18;;;3.80;82.80;;;;;;5039016;28;20227;-66
2023/02/10 12:13:19;;;;;;;5.55;3.58;;;3.80;83.70;;;;;;5035867;28;20662;-66
2023/02/10 12:15:56;;;;;;;7.68;3.90;;;3.80;84.30;;;;;;5047431;28;20232;-66
2023/02/10 12:18:44;;;;;;;7.80;5.28;;;3.80;84.30;;;;;;5046233;28;21028;-67
2023/02/10 12:21:28;;;;;;;8.43;6.47;;;3.90;84.20;;;;;;5048399;28;20220;-68
2023/02/10 12:24:09;;;;;;;4.13;3.55;;;3.90;82.90;;;;;;5039091;28;20195;-67
2023/02/10 12:26:43;;;;;;;10.05;4.90;;;3.90;81.60;;;;;;5036438;28;20224;-68
2023/02/10 12:29:22;;;;;;;3.53;3.28;;;4.00;82.50;;;;;;5036010;28;20235;-68
2023/02/10 12:32:02;;;;;;;9.32;5.30;;;4.00;81.90;;;;;;5045162;28;20311;-67
2023/02/10 12:34:45;;;;;;;5.72;3.70;;;4.00;80.80;;;;;;5047687;28;20218;-67
2023/02/10 12:37:21;;;;;;;5.05;4.55;;;3.90;80.90;;;;;;5041049;28;20233;-67
2023/02/10 12:39:56;;;;;;;11.40;4.72;;;4.00;79.80;;;;;;5042511;28;20680;-67
2023/02/10 12:42:42;;;;;;;5.03;4.68;;;4.00;80.20;;;;;;5068308;28;20227;-67
2023/02/10 12:45:18;;;;;;;7.15;6.10;;;4.00;80.40;;;;;;5068356;28;20359;-67
2023/02/10 12:47:57;;;;;;;4.97;4.53;;;4.00;79.90;;;;;;5057425;28;20599;-67
2023/02/10 12:50:44;;;;;;;3.95;3.15;;;4.00;79.50;;;;;;5047345;28;20227;-67
2023/02/10 12:53:17;;;;;;;5.80;3.40;;;4.10;79.10;;;;;;5034546;28;20210;-68
2023/02/10 12:55:51;;;;;;;11.05;5.07;;;4.10;79.80;;;;;;5027851;28;20712;-67
2023/02/10 12:58:21;;;;;;;6.90;3.60;;;4.10;78.10;;;;;;5027579;28;20219;-67
2023/02/10 13:00:53;;;;;;;3.97;3.17;;;4.10;78.10;;;;;;5047435;28;20230;-67
2023/02/10 13:03:29;;;;;;;4.10;3.60;;;4.20;78.50;;;;;;5047890;28;20204;-67
2023/02/10 13:06:01;;;;;;;4.18;2.13;;;4.10;77.90;;;;;;5047626;28;20617;-67
2023/02/10 13:08:33;;;;;;;4.10;3.70;;;4.20;76.50;;;;;;5046745;28;20948;-67
2023/02/10 13:11:08;;;;;;;13.32;5.15;;;4.20;77.20;;;;;;5039613;28;20724;-67